Time;durP1;ratioP1;P1;durP2;ratioP2;P2;SDS_P1;SDS_P2;PMS_P1;PMS_P2;Temp;Humidity;BMP_temperature;BMP_pressure;BME280_temperature;BME280_humidity;BME280_pressure;Samples;Min_cycle;Max_cycle;Signal;HPM_P1;HPM_P2
2023/12/10 00:00:57;;;;;;;31.80;3.85;;;8.40;99.90;;;;;;4952639;28;20050;-71
2023/12/10 00:03:23;;;;;;;38.10;5.50;;;8.90;99.90;;;;;;4952450;28;20126;-72
2023/12/10 00:05:49;;;;;;;40.75;4.80;;;8.40;99.90;;;;;;4924741;28;20035;-72
2023/12/10 00:08:16;;;;;;;33.63;4.40;;;8.90;99.90;;;;;;4936375;28;20151;-72
2023/12/10 00:10:42;;;;;;;34.30;4.30;;;8.60;99.90;;;;;;4952141;28;20214;-72
2023/12/10 00:13:09;;;;;;;30.00;4.05;;;8.80;99.90;;;;;;4935801;28;20043;-72
2023/12/10 00:15:38;;;;;;;38.38;5.10;;;8.90;99.90;;;;;;4935722;28;20074;-72
2023/12/10 00:18:05;;;;;;;30.45;4.32;;;8.50;99.90;;;;;;4966042;28;20055;-72
2023/12/10 00:20:32;;;;;;;29.88;4.13;;;8.50;99.90;;;;;;4936299;28;20039;-73
2023/12/10 00:22:58;;;;;;;37.15;4.03;;;8.70;99.90;;;;;;4951471;28;20054;-72
2023/12/10 00:25:26;;;;;;;29.52;4.13;;;9.00;99.90;;;;;;4950876;28;20042;-73
2023/12/10 00:27:52;;;;;;;25.52;3.50;;;9.10;99.90;;;;;;4950925;28;20082;-73
2023/12/10 00:30:18;;;;;;;30.02;4.40;;;9.00;99.90;;;;;;4919161;28;20050;-73
2023/12/10 00:32:43;;;;;;;30.77;4.57;;;8.90;99.90;;;;;;4951951;28;20046;-73
2023/12/10 00:35:09;;;;;;;34.38;4.70;;;8.80;99.90;;;;;;4951816;28;20043;-72
2023/12/10 00:37:35;;;;;;;30.67;3.90;;;8.70;99.90;;;;;;4951285;28;20619;-72
2023/12/10 00:40:03;;;;;;;27.80;3.50;;;9.00;99.90;;;;;;4951109;28;20058;-73
2023/12/10 00:42:29;;;;;;;32.55;4.32;;;8.90;99.90;;;;;;4951555;28;20191;-73
2023/12/10 00:44:55;;;;;;;28.85;3.47;;;8.80;99.90;;;;;;4934201;28;20043;-72
2023/12/10 00:47:20;;;;;;;24.95;3.47;;;9.10;99.90;;;;;;4936160;28;20397;-72
2023/12/10 00:49:46;;;;;;;30.33;3.45;;;9.10;99.90;;;;;;4951721;28;20067;-73
2023/12/10 00:52:12;;;;;;;31.77;4.53;;;9.00;99.90;;;;;;4918741;28;20059;-73
2023/12/10 00:54:37;;;;;;;37.13;4.88;;;9.10;99.90;;;;;;4939570;28;20510;-73
2023/12/10 00:57:03;;;;;;;34.88;4.97;;;8.90;99.90;;;;;;4950827;28;20133;-73
2023/12/10 00:59:29;;;;;;;33.50;4.80;;;9.00;99.90;;;;;;4918961;28;20038;-73
2023/12/10 01:01:55;;;;;;;29.70;4.88;;;9.10;99.90;;;;;;4935634;28;20097;-72
2023/12/10 01:04:22;;;;;;;34.47;5.07;;;9.10;99.90;;;;;;4935666;28;20710;-73
2023/12/10 01:06:48;;;;;;;37.08;4.70;;;9.20;99.90;;;;;;4951366;28;20043;-73
2023/12/10 01:09:17;;;;;;;33.17;4.32;;;9.20;99.90;;;;;;4950608;28;20042;-73
2023/12/10 01:11:42;;;;;;;40.78;5.13;;;8.90;99.90;;;;;;4951468;28;20053;-73
2023/12/10 01:14:08;;;;;;;23.50;3.38;;;9.00;99.90;;;;;;4935336;28;20490;-73
2023/12/10 01:16:34;;;;;;;38.00;5.00;;;8.90;99.90;;;;;;4935041;28;20289;-72
2023/12/10 01:19:00;;;;;;;30.50;3.97;;;9.10;99.90;;;;;;4936088;28;20074;-72
2023/12/10 01:21:25;;;;;;;28.08;3.53;;;9.20;99.90;;;;;;4951266;28;20038;-72
2023/12/10 01:23:54;;;;;;;37.00;5.15;;;9.00;99.90;;;;;;4918955;28;20187;-72
2023/12/10 01:26:23;;;;;;;26.27;3.28;;;9.10;99.90;;;;;;4935895;28;20453;-72
2023/12/10 01:28:49;;;;;;;24.08;3.50;;;9.00;99.90;;;;;;4935265;28;20137;-73
2023/12/10 01:31:15;;;;;;;28.73;4.20;;;9.10;99.90;;;;;;4950837;28;20070;-72
2023/12/10 01:33:41;;;;;;;22.92;2.92;;;9.10;99.90;;;;;;4951735;28;20162;-72
2023/12/10 01:36:07;;;;;;;25.80;3.88;;;8.90;99.90;;;;;;4952522;28;20054;-72
2023/12/10 01:38:34;;;;;;;22.67;3.33;;;8.90;99.90;;;;;;4953667;28;20038;-72
2023/12/10 01:41:00;;;;;;;25.95;3.58;;;8.80;99.90;;;;;;4922797;28;20053;-72
2023/12/10 01:43:25;;;;;;;25.45;3.88;;;8.60;99.90;;;;;;4955334;28;20050;-72
2023/12/10 01:45:53;;;;;;;28.15;3.88;;;8.70;99.90;;;;;;4954934;28;20566;-72
2023/12/10 01:48:20;;;;;;;24.23;2.75;;;8.70;99.90;;;;;;4954909;28;20058;-71
2023/12/10 01:50:46;;;;;;;21.95;2.88;;;8.40;99.90;;;;;;4939210;28;20038;-71
2023/12/10 01:53:13;;;;;;;25.80;3.38;;;8.40;99.90;;;;;;4954874;28;20039;-71
2023/12/10 01:55:40;;;;;;;27.45;3.83;;;8.40;99.90;;;;;;4956771;28;20454;-71
2023/12/10 01:58:06;;;;;;;20.35;2.75;;;8.40;99.90;;;;;;4941877;28;20046;-71
2023/12/10 02:00:32;;;;;;;24.02;3.45;;;8.40;99.90;;;;;;4926255;28;20035;-71
2023/12/10 02:03:00;;;;;;;29.67;3.90;;;8.40;99.90;;;;;;4956530;28;20527;-71
2023/12/10 02:05:26;;;;;;;31.27;3.85;;;8.50;99.90;;;;;;4957886;28;20714;-71
2023/12/10 02:07:53;;;;;;;22.90;2.92;;;8.30;99.90;;;;;;4959440;28;20138;-71
2023/12/10 02:10:19;;;;;;;32.95;4.75;;;8.40;99.90;;;;;;4962502;28;20397;-71
2023/12/10 02:12:46;;;;;;;32.40;3.53;;;8.10;99.90;;;;;;4962056;28;20050;-71
2023/12/10 02:15:16;;;;;;;30.70;4.00;;;8.50;99.90;;;;;;4957270;28;20043;-73
2023/12/10 02:17:42;;;;;;;32.17;3.60;;;8.00;99.90;;;;;;4950094;28;20058;-72
2023/12/10 02:20:15;;;;;;;33.63;3.35;;;8.40;99.90;;;;;;4950870;28;20496;-73
2023/12/10 02:22:58;;;;;;;29.17;3.22;;;8.20;99.90;;;;;;4950371;28;20228;-73
2023/12/10 02:25:33;;;;;;;28.70;3.65;;;8.30;99.90;;;;;;4935065;28;20043;-73
2023/12/10 02:28:00;;;;;;;28.95;3.33;;;8.10;99.90;;;;;;4949725;28;20051;-72
2023/12/10 02:30:26;;;;;;;26.88;3.83;;;7.90;99.90;;;;;;4923813;28;20704;-73
2023/12/10 02:32:52;;;;;;;32.75;3.85;;;8.10;99.90;;;;;;4933413;28;20449;-73
2023/12/10 02:35:18;;;;;;;30.10;3.90;;;8.30;99.90;;;;;;4949922;28;20049;-73
2023/12/10 02:37:43;;;;;;;25.08;3.30;;;8.40;99.90;;;;;;4950906;28;20269;-72
2023/12/10 02:40:10;;;;;;;26.58;3.20;;;8.00;99.90;;;;;;4934256;28;20046;-72
2023/12/10 02:42:36;;;;;;;24.80;3.33;;;8.40;99.90;;;;;;4949592;28;20170;-72
2023/12/10 02:45:02;;;;;;;31.42;3.42;;;8.00;99.90;;;;;;4906560;28;20066;-72
2023/12/10 02:47:28;;;;;;;25.83;3.17;;;8.10;99.90;;;;;;4922877;28;20747;-72
2023/12/10 02:49:54;;;;;;;35.03;3.95;;;7.70;99.90;;;;;;4950375;28;20054;-72
2023/12/10 02:52:23;;;;;;;36.60;3.63;;;7.70;99.90;;;;;;4949939;28;20049;-72
2023/12/10 02:54:48;;;;;;;21.40;2.45;;;7.80;99.90;;;;;;4949731;28;20053;-73
2023/12/10 02:57:14;;;;;;;33.95;3.22;;;8.20;99.90;;;;;;4949671;28;20152;-73
2023/12/10 02:59:40;;;;;;;21.63;2.40;;;8.30;99.90;;;;;;4950190;28;20297;-73
2023/12/10 03:02:06;;;;;;;23.45;2.67;;;8.30;99.90;;;;;;4933082;28;20401;-73
2023/12/10 03:04:32;;;;;;;24.83;2.90;;;7.80;99.90;;;;;;4950410;28;20043;-72
2023/12/10 03:06:57;;;;;;;25.08;2.60;;;7.90;99.90;;;;;;4951799;28;20062;-72
2023/12/10 03:09:23;;;;;;;21.58;2.97;;;7.80;99.90;;;;;;4953442;28;20148;-72
2023/12/10 03:11:49;;;;;;;26.13;3.10;;;7.80;99.90;;;;;;4937314;28;20038;-72
2023/12/10 03:14:14;;;;;;;33.05;3.55;;;8.00;99.90;;;;;;4937236;28;20105;-73
2023/12/10 03:16:40;;;;;;;24.20;2.97;;;8.40;99.90;;;;;;4937749;28;20055;-72
2023/12/10 03:19:06;;;;;;;30.25;3.10;;;7.80;99.90;;;;;;4954223;28;20034;-72
2023/12/10 03:21:31;;;;;;;26.50;3.28;;;7.70;99.90;;;;;;4955328;28;20289;-73
2023/12/10 03:23:57;;;;;;;27.92;3.17;;;7.70;99.90;;;;;;4985467;28;20038;-73
2023/12/10 03:26:23;;;;;;;26.30;2.80;;;8.20;99.90;;;;;;4936992;28;20281;-73
2023/12/10 03:28:48;;;;;;;17.38;1.65;;;7.70;99.90;;;;;;4953537;28;20429;-73
2023/12/10 03:31:14;;;;;;;25.42;2.33;;;8.40;99.90;;;;;;4937530;28;20051;-73
2023/12/10 03:33:40;;;;;;;22.90;3.08;;;8.20;99.90;;;;;;4953306;28;20084;-73
2023/12/10 03:36:06;;;;;;;24.63;2.70;;;8.20;99.90;;;;;;4925752;28;20154;-73
2023/12/10 03:38:32;;;;;;;30.17;3.08;;;7.70;99.90;;;;;;4921911;28;20045;-73
2023/12/10 03:40:57;;;;;;;26.17;3.53;;;8.10;99.90;;;;;;4937884;28;20038;-73
2023/12/10 03:43:24;;;;;;;23.40;3.13;;;8.00;99.90;;;;;;4953056;28;20109;-73
2023/12/10 03:45:50;;;;;;;23.02;2.70;;;7.60;99.90;;;;;;4935269;28;20309;-73
2023/12/10 03:48:15;;;;;;;29.27;3.03;;;8.20;99.90;;;;;;4952983;28;20043;-73
2023/12/10 03:50:41;;;;;;;23.15;3.58;;;7.60;99.90;;;;;;4953162;28;20046;-73
2023/12/10 03:53:07;;;;;;;23.17;2.50;;;8.20;99.90;;;;;;4921284;28;20469;-73
2023/12/10 03:55:33;;;;;;;31.40;2.50;;;7.60;99.90;;;;;;4924232;28;20396;-73
2023/12/10 03:57:59;;;;;;;27.70;3.08;;;7.70;99.90;;;;;;4984692;28;20035;-73
2023/12/10 04:00:24;;;;;;;26.33;2.83;;;7.80;99.90;;;;;;4952495;28;20035;-73
2023/12/10 04:02:50;;;;;;;19.92;2.30;;;7.60;99.90;;;;;;4953354;28;20522;-73
2023/12/10 04:05:16;;;;;;;24.23;2.10;;;8.10;99.90;;;;;;4920624;28;20042;-73
2023/12/10 04:07:42;;;;;;;22.98;2.50;;;8.30;99.90;;;;;;4953610;28;20038;-74
2023/12/10 04:10:08;;;;;;;23.23;1.88;;;7.50;99.90;;;;;;4953245;28;20640;-74
2023/12/10 04:12:34;;;;;;;18.20;1.75;;;7.70;99.90;;;;;;4953052;28;20105;-74
2023/12/10 04:14:59;;;;;;;19.55;1.70;;;8.10;99.90;;;;;;4953030;28;20038;-73
2023/12/10 04:17:25;;;;;;;20.83;1.98;;;8.30;99.90;;;;;;4953057;28;20058;-73
2023/12/10 04:19:51;;;;;;;19.10;1.77;;;8.10;99.90;;;;;;4920554;28;20401;-73
2023/12/10 04:22:17;;;;;;;16.33;1.70;;;8.20;99.90;;;;;;4953716;28;20042;-74
2023/12/10 04:24:42;;;;;;;15.88;1.83;;;8.10;99.90;;;;;;4937481;28;20110;-74
2023/12/10 04:27:08;;;;;;;17.20;1.67;;;7.90;99.90;;;;;;4936737;28;20482;-73
2023/12/10 04:29:34;;;;;;;15.40;1.10;;;8.10;99.90;;;;;;4952742;28;20070;-74
2023/12/10 04:32:00;;;;;;;9.55;0.93;;;7.80;99.90;;;;;;4936551;28;20386;-73
2023/12/10 04:34:25;;;;;;;13.70;1.23;;;7.60;99.90;;;;;;4952996;28;20054;-73
2023/12/10 04:36:51;;;;;;;14.77;1.08;;;8.40;99.90;;;;;;4952412;28;20190;-74
2023/12/10 04:39:18;;;;;;;11.43;0.95;;;7.70;99.90;;;;;;4937200;28;20102;-74
2023/12/10 04:41:43;;;;;;;10.88;0.70;;;8.40;99.90;;;;;;4936207;28;20039;-73
2023/12/10 04:44:09;;;;;;;7.85;0.90;;;8.30;99.90;;;;;;4937104;28;20038;-73
2023/12/10 04:46:35;;;;;;;11.25;0.82;;;8.30;99.90;;;;;;4952025;28;20046;-74
2023/12/10 04:49:01;;;;;;;8.32;0.65;;;8.00;99.90;;;;;;4953312;28;20593;-73
2023/12/10 04:51:27;;;;;;;6.93;0.50;;;8.30;99.90;;;;;;4936561;28;20097;-73
2023/12/10 04:53:53;;;;;;;8.40;0.70;;;8.50;99.90;;;;;;4936761;28;20433;-74
2023/12/10 04:56:18;;;;;;;9.20;0.88;;;8.50;99.90;;;;;;4936243;28;20097;-74
2023/12/10 04:58:44;;;;;;;10.93;0.63;;;7.90;99.90;;;;;;4923306;28;20221;-73
2023/12/10 05:01:10;;;;;;;6.63;0.40;;;8.10;99.90;;;;;;4921069;28;20565;-73
2023/12/10 05:03:36;;;;;;;7.35;0.52;;;7.70;99.90;;;;;;4936033;28;20041;-74
2023/12/10 05:06:02;;;;;;;5.38;0.50;;;8.30;99.90;;;;;;4936763;28;20724;-73
2023/12/10 05:08:27;;;;;;;4.63;0.50;;;7.80;99.90;;;;;;4952600;28;20185;-73
2023/12/10 05:10:53;;;;;;;10.18;0.50;;;7.80;99.90;;;;;;4952595;28;20076;-73
2023/12/10 05:13:19;;;;;;;5.28;0.43;;;7.90;99.90;;;;;;4936128;28;20038;-73
2023/12/10 05:15:44;;;;;;;4.68;0.32;;;7.70;99.90;;;;;;4935837;28;20204;-74
2023/12/10 05:18:10;;;;;;;8.60;0.75;;;8.50;99.90;;;;;;4950693;28;20113;-73
2023/12/10 05:20:36;;;;;;;8.40;0.70;;;8.70;99.90;;;;;;4951423;28;20129;-73
2023/12/10 05:23:02;;;;;;;7.38;0.45;;;8.60;99.90;;;;;;4951972;28;20047;-73
2023/12/10 05:25:28;;;;;;;8.20;0.90;;;8.60;99.90;;;;;;4952080;28;20034;-73
2023/12/10 05:27:54;;;;;;;6.97;0.60;;;8.20;99.90;;;;;;4951151;28;20054;-73
2023/12/10 05:30:20;;;;;;;6.93;0.80;;;8.60;99.90;;;;;;4921971;28;20101;-72
2023/12/10 05:32:46;;;;;;;7.35;0.70;;;8.80;99.90;;;;;;4934888;28;20283;-72
2023/12/10 05:35:12;;;;;;;9.57;0.70;;;8.60;99.90;;;;;;4935148;28;20086;-73
2023/12/10 05:37:38;;;;;;;17.38;1.17;;;8.50;99.90;;;;;;4951212;28;20255;-73
2023/12/10 05:40:04;;;;;;;11.48;0.90;;;8.00;99.90;;;;;;4950668;28;20046;-73
2023/12/10 05:42:30;;;;;;;8.63;0.77;;;8.20;99.90;;;;;;4935119;28;20069;-72
2023/12/10 05:44:56;;;;;;;11.30;0.98;;;8.90;99.90;;;;;;4950565;28;20658;-72
2023/12/10 05:47:22;;;;;;;5.28;0.50;;;8.60;99.90;;;;;;4935160;28;20046;-72
2023/12/10 05:49:48;;;;;;;8.77;0.82;;;8.90;99.90;;;;;;4950705;28;20278;-73
2023/12/10 05:52:13;;;;;;;13.98;1.00;;;9.10;99.90;;;;;;4935652;28;20610;-72
2023/12/10 05:54:39;;;;;;;8.65;0.70;;;8.20;99.90;;;;;;4951932;28;20341;-71
2023/12/10 05:57:05;;;;;;;9.02;0.70;;;8.10;99.90;;;;;;4936116;28;20509;-71
2023/12/10 05:59:31;;;;;;;9.88;0.77;;;8.90;99.90;;;;;;4950973;28;20128;-71
2023/12/10 06:01:57;;;;;;;10.45;0.70;;;8.50;99.90;;;;;;4951468;28;20171;-71
2023/12/10 06:04:22;;;;;;;10.98;1.00;;;8.30;99.90;;;;;;4934031;28;20134;-72
2023/12/10 06:06:48;;;;;;;7.88;0.75;;;8.10;99.90;;;;;;4950973;28;20037;-71
2023/12/10 06:09:14;;;;;;;9.07;0.70;;;8.20;99.90;;;;;;4935044;28;20043;-71
2023/12/10 06:11:40;;;;;;;15.85;1.25;;;8.90;99.90;;;;;;4951681;28;20253;-71
2023/12/10 06:14:06;;;;;;;16.25;1.40;;;8.80;99.90;;;;;;4950967;28;20639;-71
2023/12/10 06:16:32;;;;;;;14.77;1.40;;;8.10;99.90;;;;;;4950515;28;20605;-71
2023/12/10 06:18:58;;;;;;;14.70;1.10;;;8.80;99.90;;;;;;4950205;28;20065;-71
2023/12/10 06:21:24;;;;;;;14.07;1.10;;;8.10;99.90;;;;;;4950100;28;20053;-71
2023/12/10 06:23:50;;;;;;;12.50;1.02;;;8.00;99.90;;;;;;4934403;28;20070;-71
2023/12/10 06:26:15;;;;;;;15.48;1.20;;;9.00;99.90;;;;;;4917877;28;20043;-72
2023/12/10 06:28:41;;;;;;;15.35;1.38;;;8.70;99.90;;;;;;4949030;28;20038;-71
2023/12/10 06:31:07;;;;;;;20.67;1.88;;;8.80;99.90;;;;;;4949142;28;20065;-71
2023/12/10 06:33:32;;;;;;;21.05;1.80;;;8.60;99.90;;;;;;4916332;28;20045;-71
2023/12/10 06:35:58;;;;;;;20.15;1.77;;;8.10;99.90;;;;;;4933210;28;20047;-71
2023/12/10 06:38:24;;;;;;;15.10;1.80;;;8.10;99.90;;;;;;4949712;28;20039;-71
2023/12/10 06:40:49;;;;;;;22.27;2.10;;;8.30;99.90;;;;;;4949029;28;20043;-71
2023/12/10 06:43:15;;;;;;;21.27;2.75;;;8.10;99.90;;;;;;4948010;28;20071;-71
2023/12/10 06:45:41;;;;;;;22.98;2.67;;;9.00;99.90;;;;;;4949275;28;20046;-71
2023/12/10 06:48:07;;;;;;;23.90;2.05;;;9.10;99.90;;;;;;4949486;28;20039;-72
2023/12/10 06:50:32;;;;;;;20.77;1.95;;;8.10;99.90;;;;;;4949485;28;20551;-71
2023/12/10 06:52:58;;;;;;;18.45;2.20;;;9.20;99.90;;;;;;4980842;28;20146;-72
2023/12/10 06:55:24;;;;;;;27.65;1.92;;;9.30;99.90;;;;;;4949311;28;20563;-71
2023/12/10 06:57:50;;;;;;;24.77;1.92;;;8.30;99.90;;;;;;4949536;28;20043;-71
2023/12/10 07:00:17;;;;;;;26.75;2.92;;;8.40;99.90;;;;;;4933374;28;20081;-71
2023/12/10 07:02:43;;;;;;;25.70;2.47;;;8.30;99.90;;;;;;4934412;28;20421;-71
2023/12/10 07:05:09;;;;;;;30.75;3.58;;;9.30;99.90;;;;;;4949593;28;20218;-70
2023/12/10 07:07:35;;;;;;;22.77;2.53;;;8.70;99.90;;;;;;4950078;28;20057;-71
2023/12/10 07:10:01;;;;;;;33.20;3.25;;;9.10;99.90;;;;;;4981966;28;20054;-71
2023/12/10 07:12:27;;;;;;;28.08;3.13;;;8.20;99.90;;;;;;4931933;28;20429;-70
2023/12/10 07:14:52;;;;;;;22.80;2.03;;;9.00;99.90;;;;;;4933269;28;20081;-70
2023/12/10 07:17:18;;;;;;;30.88;3.40;;;8.10;99.90;;;;;;4894882;28;1144202;-71
2023/12/10 07:19:44;;;;;;;30.77;3.17;;;8.70;99.90;;;;;;4950047;28;20043;-71
2023/12/10 07:22:09;;;;;;;31.63;3.55;;;8.40;99.90;;;;;;4917964;28;20043;-71
2023/12/10 07:24:37;;;;;;;30.35;3.38;;;9.10;99.90;;;;;;4935635;28;20146;-70
2023/12/10 07:27:03;;;;;;;34.47;3.13;;;8.80;99.90;;;;;;4934854;28;20035;-71
2023/12/10 07:29:29;;;;;;;28.55;3.20;;;9.20;99.90;;;;;;4950201;28;20402;-70
2023/12/10 07:31:54;;;;;;;25.15;2.83;;;9.30;99.90;;;;;;4933994;28;20467;-70
2023/12/10 07:34:20;;;;;;;24.23;3.08;;;8.00;99.90;;;;;;4933797;28;20049;-71
2023/12/10 07:36:46;;;;;;;31.40;3.40;;;8.40;99.90;;;;;;4950148;28;20321;-70
2023/12/10 07:39:13;;;;;;;23.10;2.72;;;9.00;99.90;;;;;;4934174;28;20043;-70
2023/12/10 07:41:38;;;;;;;28.98;3.10;;;9.20;99.90;;;;;;4934182;28;20474;-71
2023/12/10 07:44:04;;;;;;;23.40;3.55;;;9.10;99.90;;;;;;4950046;28;20053;-71
2023/12/10 07:46:30;;;;;;;19.67;2.78;;;8.00;99.90;;;;;;4948862;28;20718;-72
2023/12/10 07:48:56;;;;;;;28.05;3.20;;;8.40;99.90;;;;;;4948703;28;20054;-71
2023/12/10 07:51:23;;;;;;;29.10;3.17;;;8.10;99.90;;;;;;4949889;28;20137;-71
2023/12/10 07:53:49;;;;;;;33.67;3.47;;;8.50;99.90;;;;;;4952912;28;20445;-73
2023/12/10 07:56:15;;;;;;;22.63;2.85;;;8.30;99.90;;;;;;4937544;28;20560;-72
2023/12/10 07:58:40;;;;;;;27.85;2.78;;;8.10;99.90;;;;;;4937712;28;20057;-72
2023/12/10 08:01:09;;;;;;;28.52;3.63;;;8.90;99.90;;;;;;4921128;28;20390;-73
2023/12/10 08:03:35;;;;;;;34.72;3.80;;;9.30;99.90;;;;;;4936522;28;20557;-73
2023/12/10 08:06:01;;;;;;;32.50;3.58;;;8.20;99.90;;;;;;4937898;28;20567;-72
2023/12/10 08:08:27;;;;;;;24.95;2.88;;;9.40;99.90;;;;;;4938070;28;20039;-72
2023/12/10 08:10:53;;;;;;;32.03;4.47;;;9.40;99.90;;;;;;4954750;28;20138;-72
2023/12/10 08:13:19;;;;;;;33.53;4.20;;;8.80;99.90;;;;;;4923074;28;20042;-73
2023/12/10 08:15:44;;;;;;;35.55;4.38;;;9.30;99.90;;;;;;4921865;28;20505;-73
2023/12/10 08:18:10;;;;;;;28.52;3.55;;;9.10;99.90;;;;;;4938228;28;20065;-72
2023/12/10 08:20:36;;;;;;;28.88;3.22;;;8.40;99.90;;;;;;4954685;28;20038;-72
2023/12/10 08:23:02;;;;;;;30.83;3.30;;;9.40;99.90;;;;;;4933132;28;20042;-73
2023/12/10 08:25:28;;;;;;;21.83;2.72;;;8.50;99.90;;;;;;4949404;28;20191;-72
2023/12/10 08:27:55;;;;;;;24.85;3.72;;;8.40;99.90;;;;;;4935275;28;20043;-73
2023/12/10 08:30:20;;;;;;;26.33;3.25;;;9.30;99.90;;;;;;4951090;28;20292;-73
2023/12/10 08:32:47;;;;;;;27.30;2.88;;;9.30;99.90;;;;;;4952257;28;20070;-73
2023/12/10 08:35:13;;;;;;;24.95;2.67;;;8.60;99.90;;;;;;4920073;28;20070;-73
2023/12/10 08:37:39;;;;;;;29.05;2.97;;;8.40;99.90;;;;;;4952254;28;20514;-73
2023/12/10 08:40:05;;;;;;;35.22;3.42;;;9.40;99.90;;;;;;4950891;28;20236;-73
2023/12/10 08:42:31;;;;;;;25.88;2.33;;;8.50;99.90;;;;;;4923347;28;20049;-73
2023/12/10 08:45:00;;;;;;;18.05;1.77;;;8.50;99.90;;;;;;4951156;28;20324;-73
2023/12/10 08:47:26;;;;;;;13.85;1.30;;;8.90;99.90;;;;;;4951837;28;20053;-73
2023/12/10 08:49:52;;;;;;;16.33;1.48;;;9.40;99.90;;;;;;4953014;28;20417;-73
2023/12/10 08:52:18;;;;;;;12.43;1.45;;;9.60;99.90;;;;;;4916981;28;20039;-73
2023/12/10 08:54:44;;;;;;;15.65;1.50;;;8.50;99.90;;;;;;4934361;28;20278;-72
2023/12/10 08:57:09;;;;;;;16.40;1.38;;;9.50;99.90;;;;;;4951866;28;20473;-72
2023/12/10 08:59:35;;;;;;;21.42;2.00;;;9.70;99.90;;;;;;4930124;28;20126;-72
2023/12/10 09:02:01;;;;;;;15.75;1.40;;;9.40;99.90;;;;;;4953050;28;20051;-72
2023/12/10 09:04:27;;;;;;;24.63;2.05;;;8.40;99.90;;;;;;4950913;28;20042;-72
2023/12/10 09:06:52;;;;;;;21.23;1.63;;;9.60;99.90;;;;;;4937854;28;20050;-72
2023/12/10 09:09:18;;;;;;;12.90;0.82;;;9.30;99.90;;;;;;4953247;28;20034;-72
2023/12/10 09:11:44;;;;;;;11.68;1.13;;;8.30;99.90;;;;;;4952046;28;20065;-72
2023/12/10 09:14:11;;;;;;;17.30;1.50;;;8.70;99.90;;;;;;4952594;28;20064;-72
2023/12/10 09:16:37;;;;;;;18.15;1.77;;;8.30;99.90;;;;;;4935795;28;20413;-72
2023/12/10 09:19:03;;;;;;;22.85;1.65;;;8.80;99.90;;;;;;4935968;28;20133;-72
2023/12/10 09:21:29;;;;;;;19.08;1.83;;;9.50;99.90;;;;;;4934283;28;20497;-71
2023/12/10 09:23:56;;;;;;;19.98;2.00;;;9.60;99.90;;;;;;4935739;28;20140;-72
2023/12/10 09:26:22;;;;;;;16.25;1.55;;;9.20;99.90;;;;;;4951989;28;20626;-72
2023/12/10 09:28:47;;;;;;;20.45;2.10;;;8.50;99.90;;;;;;4953520;28;20049;-72
2023/12/10 09:31:13;;;;;;;13.75;1.80;;;8.50;99.90;;;;;;4953130;28;20049;-72
2023/12/10 09:33:39;;;;;;;13.77;1.55;;;9.10;99.90;;;;;;4937320;28;20136;-72
2023/12/10 09:36:05;;;;;;;21.90;1.73;;;9.10;99.90;;;;;;4936236;28;20089;-72
2023/12/10 09:38:31;;;;;;;20.60;2.10;;;9.60;99.90;;;;;;4927266;28;20429;-71
2023/12/10 09:40:56;;;;;;;20.88;1.92;;;8.30;99.90;;;;;;4936224;28;20043;-72
2023/12/10 09:43:23;;;;;;;20.00;1.60;;;9.50;99.90;;;;;;4952075;28;20112;-72
2023/12/10 09:45:49;;;;;;;22.90;1.70;;;8.60;99.90;;;;;;4953225;28;20097;-72
2023/12/10 09:48:16;;;;;;;15.65;1.25;;;8.30;99.90;;;;;;4937319;28;20405;-72
2023/12/10 09:50:42;;;;;;;20.98;1.98;;;8.50;99.90;;;;;;4926226;28;20197;-72
2023/12/10 09:53:09;;;;;;;21.25;1.88;;;9.20;99.90;;;;;;4953099;28;20046;-72
2023/12/10 09:55:35;;;;;;;15.45;1.92;;;8.30;99.90;;;;;;4920153;28;20535;-73
2023/12/10 09:58:02;;;;;;;28.67;2.40;;;9.50;99.90;;;;;;4953134;28;20114;-72
2023/12/10 10:00:28;;;;;;;31.77;2.95;;;9.00;99.90;;;;;;4909136;28;20513;-71
2023/12/10 10:03:01;;;;;;;23.75;2.22;;;8.40;99.90;;;;;;4936858;28;20189;-72
2023/12/10 10:05:27;;;;;;;36.50;2.78;;;9.50;99.90;;;;;;4952116;28;20165;-72
2023/12/10 10:07:53;;;;;;;34.63;3.13;;;9.30;99.90;;;;;;4935880;28;20189;-72
2023/12/10 10:10:22;;;;;;;32.00;3.17;;;8.20;99.90;;;;;;4951797;28;20527;-72
2023/12/10 10:12:48;;;;;;;33.58;2.90;;;9.30;99.90;;;;;;4951906;28;20097;-72
2023/12/10 10:15:14;;;;;;;29.88;3.38;;;9.30;99.90;;;;;;4951957;28;20122;-72
2023/12/10 10:17:43;;;;;;;29.27;2.67;;;9.10;99.90;;;;;;4907724;28;20061;-73
2023/12/10 10:20:09;;;;;;;23.23;2.08;;;8.90;99.90;;;;;;4936657;28;20053;-73
2023/12/10 10:22:35;;;;;;;32.28;2.97;;;8.10;99.90;;;;;;4909548;28;20043;-73
2023/12/10 10:25:01;;;;;;;20.13;1.90;;;9.40;99.90;;;;;;4954283;28;20049;-72
2023/12/10 10:27:27;;;;;;;25.40;2.03;;;9.20;99.90;;;;;;4917643;28;20115;-72
2023/12/10 10:29:54;;;;;;;27.75;2.50;;;9.40;99.90;;;;;;4916912;28;20078;-72
2023/12/10 10:32:21;;;;;;;20.92;2.30;;;8.30;99.90;;;;;;4935076;28;20142;-72
2023/12/10 10:34:48;;;;;;;27.75;2.67;;;9.30;99.90;;;;;;4949956;28;20039;-71
2023/12/10 10:37:15;;;;;;;27.98;2.17;;;8.20;99.90;;;;;;4949280;28;20324;-72
2023/12/10 10:39:41;;;;;;;16.73;1.95;;;9.40;99.90;;;;;;4934276;28;20049;-72
2023/12/10 10:42:08;;;;;;;20.70;1.67;;;9.40;99.90;;;;;;4950584;28;20047;-72
2023/12/10 10:44:41;;;;;;;23.63;1.60;;;8.90;99.90;;;;;;4935577;28;20034;-72
2023/12/10 10:47:08;;;;;;;21.00;2.08;;;8.40;99.90;;;;;;4951649;28;20297;-72
2023/12/10 10:49:41;;;;;;;15.05;1.40;;;8.50;99.90;;;;;;4918782;28;20043;-72
2023/12/10 10:52:11;;;;;;;23.10;2.27;;;8.90;99.90;;;;;;4950815;28;20133;-73
2023/12/10 10:54:37;;;;;;;16.33;1.88;;;9.20;99.90;;;;;;4983697;28;20468;-72
2023/12/10 10:57:03;;;;;;;20.00;1.38;;;9.10;99.90;;;;;;4967100;28;20054;-72
2023/12/10 10:59:30;;;;;;;17.00;1.73;;;8.10;99.90;;;;;;4950557;28;20190;-72
2023/12/10 11:01:59;;;;;;;19.08;1.77;;;8.20;99.90;;;;;;4934355;28;20045;-72
2023/12/10 11:04:37;;;;;;;20.15;1.95;;;8.30;99.90;;;;;;4950552;28;20031;-72
2023/12/10 11:07:04;;;;;;;30.38;2.67;;;9.40;99.90;;;;;;4949845;28;20066;-72
2023/12/10 11:09:31;;;;;;;23.92;2.45;;;9.30;99.90;;;;;;4934814;28;20050;-72
2023/12/10 11:11:58;;;;;;;26.90;2.85;;;9.30;99.90;;;;;;4935525;28;20081;-72
2023/12/10 11:14:25;;;;;;;14.27;1.45;;;8.70;99.90;;;;;;4966452;28;20047;-72
2023/12/10 11:16:58;;;;;;;26.20;2.83;;;9.00;99.90;;;;;;4950683;28;20130;-72
2023/12/10 11:19:24;;;;;;;25.45;2.30;;;8.50;99.90;;;;;;4935221;28;20420;-72
2023/12/10 11:21:50;;;;;;;23.33;2.33;;;9.60;99.90;;;;;;4951563;28;20042;-72
2023/12/10 11:24:17;;;;;;;22.60;2.00;;;9.40;99.90;;;;;;4934518;28;20125;-72
2023/12/10 11:26:43;;;;;;;25.42;2.70;;;8.60;99.90;;;;;;4934229;28;20047;-72
2023/12/10 11:29:09;;;;;;;27.50;2.67;;;9.00;99.90;;;;;;4920027;28;20078;-72
2023/12/10 11:31:35;;;;;;;23.77;3.03;;;8.50;99.90;;;;;;4952295;28;20227;-72
2023/12/10 11:34:01;;;;;;;27.95;2.97;;;9.10;99.90;;;;;;4936435;28;20046;-73
2023/12/10 11:36:27;;;;;;;22.98;3.00;;;9.50;99.90;;;;;;4921038;28;20047;-72
2023/12/10 11:38:53;;;;;;;26.08;3.15;;;8.90;99.90;;;;;;4953936;28;20316;-73
2023/12/10 11:41:18;;;;;;;29.05;3.03;;;8.40;99.90;;;;;;4922051;28;20042;-72
2023/12/10 11:43:45;;;;;;;28.15;3.88;;;9.50;99.90;;;;;;4953777;28;20042;-73
2023/12/10 11:46:21;;;;;;;25.42;3.42;;;8.40;99.90;;;;;;4936709;28;20675;-73
2023/12/10 11:48:47;;;;;;;22.65;2.70;;;9.50;99.90;;;;;;4937658;28;20047;-72
2023/12/10 11:51:14;;;;;;;20.73;2.90;;;8.40;99.90;;;;;;4953097;28;20047;-72
2023/12/10 11:53:40;;;;;;;25.27;2.95;;;8.50;99.90;;;;;;4952489;28;20080;-73
2023/12/10 11:56:08;;;;;;;18.48;2.38;;;8.30;99.90;;;;;;4935356;28;20252;-73
2023/12/10 11:58:34;;;;;;;24.45;2.80;;;9.50;99.90;;;;;;4935638;28;20047;-74
2023/12/10 12:01:01;;;;;;;27.92;3.17;;;9.40;99.90;;;;;;4904321;28;20043;-73
2023/12/10 12:03:29;;;;;;;26.42;3.08;;;8.90;99.90;;;;;;4952036;28;20137;-73
2023/12/10 12:05:55;;;;;;;28.60;3.25;;;9.70;99.90;;;;;;4935950;28;20057;-73
2023/12/10 12:08:26;;;;;;;23.20;3.05;;;9.50;99.90;;;;;;4935123;28;20047;-73
2023/12/10 12:10:53;;;;;;;24.00;3.33;;;9.40;99.90;;;;;;4951984;28;20043;-74
2023/12/10 12:13:19;;;;;;;17.65;2.13;;;9.00;99.90;;;;;;4951950;28;20590;-74
2023/12/10 12:15:45;;;;;;;29.80;3.38;;;8.60;99.90;;;;;;4936058;28;20039;-74
2023/12/10 12:18:12;;;;;;;25.27;3.03;;;8.60;99.90;;;;;;4935684;28;20054;-74
2023/12/10 12:20:38;;;;;;;25.65;3.08;;;8.60;99.90;;;;;;4951433;28;20078;-74
2023/12/10 12:23:04;;;;;;;29.27;3.72;;;9.00;99.90;;;;;;4951319;28;20195;-74
2023/12/10 12:25:34;;;;;;;26.85;2.90;;;8.50;99.90;;;;;;4951585;28;20085;-74
2023/12/10 12:28:05;;;;;;;29.50;3.35;;;8.70;99.90;;;;;;4920356;28;20312;-74
2023/12/10 12:30:31;;;;;;;29.33;3.38;;;9.20;99.90;;;;;;4967000;28;20271;-75
2023/12/10 12:32:57;;;;;;;22.52;3.15;;;8.60;99.90;;;;;;4941461;28;20046;-75
2023/12/10 12:35:23;;;;;;;25.60;3.25;;;8.80;99.90;;;;;;4919895;28;20106;-75
2023/12/10 12:37:49;;;;;;;25.65;2.90;;;9.40;99.90;;;;;;4952353;28;20350;-75
2023/12/10 12:40:14;;;;;;;30.83;4.05;;;8.60;99.90;;;;;;4920094;28;20046;-75
2023/12/10 12:42:40;;;;;;;39.45;4.55;;;9.30;99.90;;;;;;4952140;28;20037;-75